Goose Lake, Iowa
Current Conditions -  °F | °C
As of 8:15 PM on Saturday 22 Nov 2014 (Local Time) from KCWI Reporting Station
Overcast Overcast  
Wind Chill: 52°   Ceiling: 2500
Heat Index: 52°   Visibility: 10mi
Dew Point: 46°   Wind: 12mph
Humidity: 82%   Direction: 180°S
Pressure: 29.81"   Gusts: NA
Location:  41.97°N, 90.38°W
Report Text: KCWI 230215Z AUTO 18010KT 10SM OVC025 11/08 A2981 RMK AO1
Loading
Personal Weather Stations






























Interactive Weather Map New forecast layout! Learn more

10-Day Weather Forecast

Advertisements
Track Severe Weather on mobile